Wilmington, DE (19807)

5:35 PM EDT en Septiembre 17, 2014 (GMT -0400)
Greenville | Change Station
CLOSE
Current Station
Estación meteorológica personal
Location: Wilmington, DE
Altura: 289 ft
Estaciones meteorológicas cercanas

Alt 289 ft 39.78 °N, 75.60 °W | Updated 10 seconds ago

Parcialmente nublado
Parcialmente nublado
68.5 ° F
Sensación térmica 68.5 ° F
N
0.0
Viento Variable Viento desde Norte
Gusts 1.0 mph

Hoy
Alta -- | Baja -- ° F
--% Posibilidad de precipitaciones
Ayer
Alta -- | Baja -- ° F
Precip. -- pul
6:45 AM 7:07 PM
Creciente menguante, 33% visible
Presión 29.98 pul
Visibilidad 10.0 Millas
Nubes Despejado
Punto de rocío 54 ° F
Humedad 59%
Precipitaciones 0.00 pul
Espesor de la nieve No disponible.
UV 2 de una escala de 12
Polen 4.30 de una escala de 12
Calidad del aire No disponible.
Flu Activity No disponible.
METAR KILG 172051Z 20004KT 10SM CLR 21/10 A2998 RMK AO2 SLP151 T02110100 55012

More Conditions Fewer Conditions

Presión 29.98 pul
Visibilidad 10.0 Millas
Nubes Despejado
Punto de rocío 54 ° F
Humedad 59%
Precipitaciones 0.00 pul
Espesor de la nieve No disponible.
UV 2 de una escala de 12
Polen 4.30 de una escala de 12
Calidad del aire No disponible.
Flu Activity No disponible.
METAR KILG 172051Z 20004KT 10SM CLR 21/10 A2998 RMK AO2 SLP151 T02110100 55012

More Conditions Fewer Conditions

10-Day Weather Forecast

Almanac

Astronomía

Sep. 17, 2014 Salida Puesta
Hora real 6:45 AM EDT 7:07 PM EDT
Crepúsculo civil 6:18 AM EDT 7:34 PM EDT
Crepúsculo náutico 5:46 AM EDT 8:06 PM EDT
Crepúsculo astronómico 5:13 AM EDT 8:38 PM EDT
Luna 12:43 AM EDT 3:15 PM EDT
Horas de luz 13h 16m
Horas de luz
12h 22m
Tomorrow will be 2m 36s shorter.
Creciente menguante, 33% of the Moon is Illuminated
Hoy
Creciente menguante
Sep 24
Nueva
Oct 1
Cuarto creciente
Oct 8
Luna llena
Oct 15
Cuarto menguante

Extremos de hoy

Máximos del estado Bajos del estado

Community

WunderPhotos

Upload Photos

1,754,170 ¡fotos cargadas!

Nearby

Grosos de nieve

Estación Profundido Altura
No tenemos constancia de nieve nueva.

Actividad de terremotos

Ciudad Distance Mag. Tiempo y dato
No hay informes recientes de la actividad sísmica.
Magnitud mínima muestra es 2,5.

Temperaturas de aguas costeras

Lugar Temperatura
Ship John Shoal, NJ 73.9 ° F
Cape May, NJ 75.9 ° F
Reedy Point, DE 75.0 ° F
Delaware City, DE 73.9 ° F
Marcus Hook, PA 75.0 ° F

Estaciones meteorológicas cercanas